Seguin, TX (78155)

8:09 PM CDT on August 03, 2015 (GMT -0500)
College Heights (South) | | Change Station
CLOSE
Current Station
Personal Weather Station
Location: Seguin, TX
Elevation: 551 ft
Nearby Weather Stations

Elev 551 ft 29.57 °N, 97.96 °W | Updated 1 minute ago

Partly Cloudy
Partly Cloudy
91.2 °F
Feels Like 93 °F
N
0.0
Wind Variable Wind from South

Today
High -- | Low -- °F
--% Chance of Precip.
Yesterday
High -- | Low -- °F
Precip. -- in
6:52 AM 8:22 PM
Waning Gibbous, 82% visible
Pressure 29.82 in
Visibility 10.0 miles
Clouds Clear
Heat Index 93 °F
Dew Point 65 °F
Humidity 42%
Rainfall 0.00 in
Snow Depth Not available.
UV 0 out of 12
Pollen 5.80 out of 12
Air Quality Not available.
Flu Activity Not available.
METAR KBAZ 040051Z AUTO 14006KT 10SM CLR 33/14 A2985 RMK AO2 SLP098 T03330144

More Conditions Fewer Conditions

Pressure 29.82 in
Visibility 10.0 miles
Clouds Clear
Heat Index 93 °F
Dew Point 65 °F
Humidity 42%
Rainfall 0.00 in
Snow Depth Not available.
UV 0 out of 12
Pollen 5.80 out of 12
Air Quality Not available.
Flu Activity Not available.
METAR KBAZ 040051Z AUTO 14006KT 10SM CLR 33/14 A2985 RMK AO2 SLP098 T03330144

More Conditions Fewer Conditions

10-Day Weather Forecast

×

Almanac

Astronomy

Aug. 03, 2015 Rise Set
Actual Time
Civil Twilight
Nautical Twilight
Astronomical Twilight
Moon
Length of Visible Light
Length of Day
Tomorrow will be .
, % of the Moon is Illuminated

Today's Extremes

State Highs State Lows

Community

WunderPhotos

Upload Photos

1,843,805 photos uploaded!

WunderBlogs® & News

Nearby

Air Quality

  Air Quality AQ Index Pollutant
Not available.

Snow Depth

Station Depth Elevation

Earthquake Activity

City Distance Mag. Time & Date
Minimum magnitude displayed is 2.5.

Coastal Water Temperatures

Place Temperature

Stations

Nearby Weather Stations

Station Location Temp. Windchill Dew Point Humidity Wind Precip. Elev Updated Type